Time;durP1;ratioP1;P1;durP2;ratioP2;P2;SDS_P1;SDS_P2;PMS_P1;PMS_P2;Temp;Humidity;BMP_temperature;BMP_pressure;BME280_temperature;BME280_humidity;BME280_pressure;Samples;Min_cycle;Max_cycle;Signal;HPM_P1;HPM_P2
2023/04/24 00:02:04;;;;;;;17.00;9.10;;;;;;;6.63;100.00;100374.36;105859;1253;62841;-57
2023/04/24 00:04:31;;;;;;;24.50;13.40;;;;;;;6.62;100.00;100377.54;105853;1254;75838;-57
2023/04/24 00:06:59;;;;;;;26.50;15.10;;;;;;;6.62;100.00;100375.56;106078;1250;69447;-58
2023/04/24 00:09:27;;;;;;;20.00;11.90;;;;;;;6.62;100.00;100377.88;106077;1254;73874;-58
2023/04/24 00:11:54;;;;;;;22.90;12.80;;;;;;;6.66;100.00;100378.89;105881;1257;63381;-64
2023/04/24 00:14:21;;;;;;;15.60;10.80;;;;;;;6.71;100.00;100381.28;105675;1253;62144;-56
2023/04/24 00:16:48;;;;;;;14.70;10.30;;;;;;;6.78;100.00;100373.52;106191;1254;75511;-61
2023/04/24 00:19:16;;;;;;;15.10;9.90;;;;;;;6.84;100.00;100376.72;106191;1251;69536;-56
2023/04/24 00:21:43;;;;;;;12.40;7.20;;;;;;;6.93;100.00;100381.48;106112;1253;73880;-57
2023/04/24 00:24:10;;;;;;;9.70;7.20;;;;;;;7.03;100.00;100380.67;105797;1255;63525;-57
2023/04/24 00:26:38;;;;;;;10.10;6.70;;;;;;;7.13;100.00;100379.63;105900;1251;61995;-60
2023/04/24 00:29:05;;;;;;;10.50;6.20;;;;;;;7.25;100.00;100384.08;105698;1260;75251;-56
2023/04/24 00:31:34;;;;;;;7.50;5.30;;;;;;;7.36;100.00;100385.08;105858;1254;69166;-57
2023/04/24 00:34:02;;;;;;;7.20;5.30;;;;;;;7.49;100.00;100387.98;105392;1251;75350;-56
2023/04/24 00:36:30;;;;;;;10.20;5.80;;;;;;;7.59;100.00;100392.86;105821;1256;64436;-63
2023/04/24 00:38:57;;;;;;;8.00;4.50;;;;;;;7.65;100.00;100391.74;105701;1251;63109;-57
2023/04/24 00:41:25;;;;;;;7.00;5.10;;;;;;;7.66;100.00;100391.06;106060;1251;75523;-57
2023/04/24 00:43:52;;;;;;;7.40;5.50;;;;;;;7.71;100.00;100387.44;105952;1257;69013;-63
2023/04/24 00:46:20;;;;;;;9.50;5.90;;;;;;;7.77;100.00;100384.92;105885;1251;74999;-56
2023/04/24 00:48:47;;;;;;;8.10;5.30;;;;;;;7.80;100.00;100387.02;105859;1254;63043;-56
2023/04/24 00:51:15;;;;;;;9.60;4.30;;;;;;;7.84;100.00;100387.34;105971;1250;62825;-56
2023/04/24 00:53:42;;;;;;;7.90;3.90;;;;;;;7.86;100.00;100388.64;106220;1254;75367;-57
2023/04/24 00:56:10;;;;;;;7.20;5.00;;;;;;;7.87;100.00;100388.70;105932;1255;68509;-57
2023/04/24 00:58:37;;;;;;;10.40;5.30;;;;;;;7.87;100.00;100389.54;106071;1254;74870;-58
2023/04/24 01:01:06;;;;;;;12.10;5.90;;;;;;;7.91;100.00;100392.11;105720;1251;62739;-56
2023/04/24 01:03:36;;;;;;;8.60;5.80;;;;;;;7.91;100.00;100391.36;106028;1254;61713;-56
2023/04/24 01:06:05;;;;;;;12.70;5.50;;;;;;;7.93;100.00;100389.22;105881;1250;75654;-60
2023/04/24 01:08:32;;;;;;;7.70;5.40;;;;;;;7.95;100.00;100394.05;105936;1251;69487;-58
2023/04/24 01:10:59;;;;;;;7.90;4.80;;;;;;;7.96;100.00;100390.72;105839;1258;73975;-56
2023/04/24 01:13:26;;;;;;;17.60;5.80;;;;;;;7.98;100.00;100390.33;105809;1256;61466;-56
2023/04/24 01:15:53;;;;;;;11.50;6.30;;;;;;;8.01;100.00;100387.83;106059;1256;61445;-57
2023/04/24 01:18:21;;;;;;;8.40;6.20;;;;;;;8.01;100.00;100386.66;105673;1251;76183;-62
2023/04/24 01:20:51;;;;;;;8.40;5.60;;;;;;;8.08;100.00;100384.92;105528;1257;68650;-57
2023/04/24 01:23:18;;;;;;;21.30;5.80;;;;;;;8.10;100.00;100382.64;105821;1251;75100;-56
2023/04/24 01:25:45;;;;;;;10.00;5.40;;;;;;;8.13;100.00;100384.25;106013;1256;63363;-58
2023/04/24 01:28:13;;;;;;;8.20;4.80;;;;;;;8.21;100.00;100383.88;106088;1251;63214;-64
2023/04/24 01:30:41;;;;;;;8.30;5.40;;;;;;;8.21;100.00;100381.77;105941;1250;76042;-57
2023/04/24 01:33:08;;;;;;;8.20;5.50;;;;;;;8.19;100.00;100378.56;105971;1256;68687;-58
2023/04/24 01:35:37;;;;;;;8.40;5.60;;;;;;;8.16;100.00;100382.52;105929;1256;75241;-57
2023/04/24 01:38:05;;;;;;;8.30;5.10;;;;;;;8.17;100.00;100382.68;106437;1251;64482;-59
2023/04/24 01:40:32;;;;;;;7.70;4.90;;;;;;;8.18;100.00;100387.08;105875;1251;61631;-58
2023/04/24 01:42:59;;;;;;;17.30;9.60;;;;;;;8.24;100.00;100388.02;105747;1254;76320;-57
2023/04/24 01:45:28;;;;;;;8.50;5.30;;;;;;;8.28;100.00;100386.25;105802;1251;69128;-57
2023/04/24 01:47:56;;;;;;;8.00;5.70;;;;;;;8.27;100.00;100386.31;105617;1255;74568;-56
2023/04/24 01:50:23;;;;;;;14.70;5.60;;;;;;;8.24;100.00;100382.17;106100;1251;63153;-63
2023/04/24 01:52:50;;;;;;;8.40;5.40;;;;;;;8.20;100.00;100381.58;105829;1257;62515;-57
2023/04/24 01:55:17;;;;;;;7.40;5.20;;;;;;;8.18;100.00;100378.53;105985;1253;76334;-57
2023/04/24 01:57:45;;;;;;;7.20;5.10;;;;;;;8.05;100.00;100384.84;105811;1251;69613;-57
2023/04/24 02:00:12;;;;;;;6.10;4.60;;;;;;;8.10;100.00;100384.58;105897;1251;74108;-57
2023/04/24 02:02:40;;;;;;;8.20;4.80;;;;;;;8.04;100.00;100384.98;105768;1251;64534;-58
2023/04/24 02:05:10;;;;;;;9.20;5.10;;;;;;;8.00;100.00;100385.75;106108;1251;61465;-57
2023/04/24 02:07:37;;;;;;;9.10;5.30;;;;;;;7.94;100.00;100386.70;105852;1250;75221;-58
2023/04/24 02:10:05;;;;;;;11.80;5.10;;;;;;;7.92;100.00;100391.43;106354;1251;68528;-65
2023/04/24 02:12:33;;;;;;;7.30;5.30;;;;;;;7.92;100.00;100389.95;106051;1254;74278;-57
2023/04/24 02:15:00;;;;;;;7.80;5.40;;;;;;;7.86;100.00;100391.36;106070;1251;64060;-57
2023/04/24 02:17:27;;;;;;;7.30;4.40;;;;;;;7.85;100.00;100392.05;105956;1251;61329;-58
2023/04/24 02:19:56;;;;;;;5.60;3.80;;;;;;;7.84;100.00;100388.52;106074;1251;75435;-64
2023/04/24 02:22:23;;;;;;;8.20;4.20;;;;;;;7.85;100.00;100387.58;105789;1254;68809;-58
2023/04/24 02:24:50;;;;;;;9.50;5.00;;;;;;;7.86;100.00;100389.20;105608;1257;74822;-56
2023/04/24 02:27:17;;;;;;;7.10;4.60;;;;;;;7.90;100.00;100389.91;105951;1251;64481;-57
2023/04/24 02:29:44;;;;;;;10.60;5.10;;;;;;;7.93;100.00;100392.38;105984;1251;61698;-58
2023/04/24 02:32:12;;;;;;;12.90;4.60;;;;;;;7.94;100.00;100396.26;106048;1251;75144;-64
2023/04/24 02:34:39;;;;;;;19.00;6.40;;;;;;;7.94;100.00;100393.55;105744;1251;69463;-57
2023/04/24 02:37:06;;;;;;;6.30;5.00;;;;;;;7.95;100.00;100392.70;106117;1250;75080;-58
2023/04/24 02:39:35;;;;;;;11.80;5.70;;;;;;;7.95;100.00;100393.20;106111;1251;64488;-59
2023/04/24 02:42:03;;;;;;;8.70;5.00;;;;;;;7.95;100.00;100389.87;106018;1251;62576;-60
2023/04/24 02:44:30;;;;;;;8.80;5.10;;;;;;;7.96;100.00;100391.17;105697;1250;75180;-61
2023/04/24 02:46:57;;;;;;;6.90;5.20;;;;;;;7.95;100.00;100393.21;106046;1256;68401;-57
2023/04/24 02:49:24;;;;;;;11.80;5.50;;;;;;;7.95;100.00;100393.23;106049;1254;73934;-57
2023/04/24 02:51:51;;;;;;;7.50;5.70;;;;;;;7.97;100.00;100401.33;105859;1251;64538;-65
2023/04/24 02:54:18;;;;;;;8.00;5.00;;;;;;;7.97;100.00;100404.53;105731;1254;64660;-63
2023/04/24 02:56:45;;;;;;;7.50;5.50;;;;;;;7.99;100.00;100406.32;105599;1257;76291;-58
2023/04/24 02:59:13;;;;;;;14.50;5.40;;;;;;;8.02;100.00;100410.15;105919;1251;69383;-58
2023/04/24 03:01:40;;;;;;;8.20;4.10;;;;;;;8.04;100.00;100412.52;105693;1256;74114;-57
2023/04/24 03:04:07;;;;;;;6.50;4.20;;;;;;;8.02;100.00;100413.27;105974;1250;64345;-58
2023/04/24 03:06:35;;;;;;;9.40;4.90;;;;;;;7.99;100.00;100415.30;106009;1250;61635;-57
2023/04/24 03:09:03;;;;;;;8.70;4.50;;;;;;;7.97;100.00;100418.91;105985;1251;76005;-57
2023/04/24 03:11:31;;;;;;;5.90;4.40;;;;;;;7.93;100.00;100424.02;105925;1251;69679;-58
2023/04/24 03:13:58;;;;;;;10.30;4.30;;;;;;;7.86;100.00;100428.77;106103;1255;74871;-65
2023/04/24 03:16:25;;;;;;;5.40;4.30;;;;;;;7.87;100.00;100431.60;106038;1253;63213;-57
2023/04/24 03:18:54;;;;;;;6.50;5.10;;;;;;;7.83;100.00;100438.91;105920;1251;62720;-56
2023/04/24 03:21:23;;;;;;;11.80;4.70;;;;;;;7.89;100.00;100442.34;105729;1251;76470;-56
2023/04/24 03:23:50;;;;;;;12.30;4.80;;;;;;;7.94;100.00;100442.66;105851;1253;69277;-64
2023/04/24 03:26:18;;;;;;;6.20;4.30;;;;;;;7.91;100.00;100441.04;105583;1251;74504;-67
2023/04/24 03:28:54;;;;;;;10.40;4.90;;;;;;;7.90;100.00;100442.13;105868;1257;63486;-58
2023/04/24 03:31:22;;;;;;;7.20;4.80;;;;;;;7.91;100.00;100446.70;105818;1251;62800;-58
2023/04/24 03:33:50;;;;;;;5.70;4.30;;;;;;;7.93;100.00;100451.88;106055;1251;76323;-59
2023/04/24 03:36:19;;;;;;;5.70;4.00;;;;;;;7.97;100.00;100451.69;105704;1251;70104;-66
2023/04/24 03:38:46;;;;;;;5.70;3.80;;;;;;;8.00;100.00;100450.33;105542;1251;74666;-60
2023/04/24 03:41:28;;;;;;;7.30;3.30;;;;;;;8.06;100.00;100445.13;105668;1255;63533;-59
2023/04/24 03:44:05;;;;;;;7.20;4.30;;;;;;;8.17;100.00;100448.21;105721;1251;62754;-59
2023/04/24 03:46:33;;;;;;;7.90;4.00;;;;;;;8.27;100.00;100449.16;105730;1251;76084;-59
2023/04/24 03:49:00;;;;;;;5.50;3.90;;;;;;;8.32;100.00;100448.63;105873;1251;69608;-58
2023/04/24 03:51:31;;;;;;;4.90;3.20;;;;;;;8.35;100.00;100447.47;105963;1257;74902;-59
2023/04/24 03:54:08;;;;;;;5.60;3.50;;;;;;;8.36;100.00;100444.94;105703;1257;63939;-57
2023/04/24 03:56:37;;;;;;;13.20;4.70;;;;;;;8.40;100.00;100443.01;105775;1253;62051;-57
2023/04/24 03:59:05;;;;;;;4.90;3.50;;;;;;;8.33;100.00;100448.73;105868;1257;76318;-57
2023/04/24 04:01:36;;;;;;;6.70;3.50;;;;;;;8.36;100.00;100448.11;105940;1251;68581;-59
2023/04/24 04:04:12;;;;;;;4.60;3.20;;;;;;;8.41;100.00;100449.20;105614;1254;75199;-59
2023/04/24 04:06:40;;;;;;;4.70;3.30;;;;;;;8.50;100.00;100448.65;105321;1253;63812;-57
2023/04/24 04:09:08;;;;;;;7.50;3.60;;;;;;;8.59;100.00;100445.49;105936;1251;61726;-57
2023/04/24 04:11:36;;;;;;;4.70;3.20;;;;;;;8.64;100.00;100449.11;105725;1257;76094;-57
2023/04/24 04:14:03;;;;;;;6.10;4.10;;;;;;;8.69;100.00;100445.44;106190;1256;68228;-56
2023/04/24 04:16:30;;;;;;;5.50;3.50;;;;;;;8.79;100.00;100443.45;105929;1254;75245;-58
2023/04/24 04:19:02;;;;;;;5.20;4.10;;;;;;;8.93;100.00;100441.11;105784;1251;64513;-58
2023/04/24 04:21:31;;;;;;;6.80;3.90;;;;;;;9.06;100.00;100440.19;105804;1251;62812;-57
2023/04/24 04:24:09;;;;;;;5.60;4.10;;;;;;;9.32;100.00;100434.19;105546;1251;76400;-57
2023/04/24 04:26:41;;;;;;;7.10;4.60;;;;;;;9.61;100.00;100434.77;105701;1257;68959;-59
2023/04/24 04:29:11;;;;;;;5.70;3.90;;;;;;;9.84;100.00;100435.44;105639;1254;75054;-59
2023/04/24 04:31:41;;;;;;;7.40;4.20;;;;;;;10.07;100.00;100443.46;105797;1257;63990;-57
2023/04/24 04:34:13;;;;;;;5.90;4.00;;;;;;;10.17;100.00;100451.34;105584;1251;61513;-56
2023/04/24 04:36:41;;;;;;;4.80;3.40;;;;;;;10.21;100.00;100462.52;105434;1253;76410;-57
2023/04/24 04:39:29;;;;;;;5.60;4.50;;;;;;;10.22;100.00;100463.25;105514;1257;68659;-58
2023/04/24 04:42:02;;;;;;;5.60;4.20;;;;;;;10.18;100.00;100461.29;105872;1257;74083;-58
2023/04/24 04:44:35;;;;;;;5.50;4.10;;;;;;;10.16;100.00;100456.59;105659;1256;63434;-58
2023/04/24 04:47:05;;;;;;;6.30;4.20;;;;;;;10.15;100.00;100452.06;106297;1251;61486;-57
2023/04/24 04:49:35;;;;;;;5.90;4.70;;;;;;;10.19;100.00;100452.66;105732;1257;77045;-57
2023/04/24 04:52:02;;;;;;;11.90;5.10;;;;;;;10.18;100.00;100453.05;105533;1257;68519;-58
2023/04/24 04:54:31;;;;;;;5.80;4.20;;;;;;;10.22;100.00;100446.55;105359;1251;75498;-57
2023/04/24 04:56:58;;;;;;;6.20;4.50;;;;;;;10.32;100.00;100442.89;105847;1256;63232;-56
2023/04/24 04:59:27;;;;;;;5.00;4.10;;;;;;;10.45;100.00;100442.00;105812;1251;63334;-58
2023/04/24 05:02:00;;;;;;;6.60;4.70;;;;;;;10.59;100.00;100442.36;105645;1251;76227;-56
2023/04/24 05:04:27;;;;;;;6.10;4.80;;;;;;;10.68;100.00;100440.77;105786;1254;68116;-57
2023/04/24 05:06:55;;;;;;;5.50;4.50;;;;;;;10.70;100.00;100438.11;106132;1254;74998;-56
2023/04/24 05:09:22;;;;;;;4.50;3.70;;;;;;;10.69;100.00;100441.86;105894;1251;64471;-58
2023/04/24 05:11:53;;;;;;;7.00;4.10;;;;;;;10.69;100.00;100435.96;105665;1251;62778;-57
2023/04/24 05:14:22;;;;;;;6.20;4.80;;;;;;;10.76;100.00;100432.38;105469;1253;77021;-57
2023/04/24 05:16:49;;;;;;;6.10;4.40;;;;;;;10.74;100.00;100429.66;105643;1257;68413;-58
2023/04/24 05:19:18;;;;;;;7.50;5.10;;;;;;;10.76;100.00;100429.24;105628;1251;75191;-57
2023/04/24 05:21:45;;;;;;;9.90;5.40;;;;;;;10.86;100.00;100426.25;105725;1256;62005;-58
2023/04/24 05:24:13;;;;;;;6.50;5.30;;;;;;;11.02;100.00;100428.05;106018;1251;62516;-64
2023/04/24 05:27:06;;;;;;;6.80;5.40;;;;;;;11.09;100.00;100430.88;105576;1251;76520;-57
2023/04/24 05:29:37;;;;;;;7.40;5.60;;;;;;;11.04;100.00;100426.73;105627;1251;69546;-57
2023/04/24 05:32:04;;;;;;;10.10;6.50;;;;;;;10.95;100.00;100431.46;105602;1254;74089;-57
2023/04/24 05:34:32;;;;;;;7.80;6.00;;;;;;;11.13;100.00;100438.92;106000;1258;62745;-56
2023/04/24 05:36:59;;;;;;;9.30;6.40;;;;;;;11.18;100.00;100435.85;105999;1253;61457;-61
2023/04/24 05:39:27;;;;;;;8.60;6.40;;;;;;;11.18;100.00;100430.64;105428;1251;75216;-60
2023/04/24 05:41:57;;;;;;;13.10;6.90;;;;;;;11.23;100.00;100424.95;105783;1256;70514;-57
2023/04/24 05:44:25;;;;;;;11.40;7.20;;;;;;;11.36;100.00;100421.32;105747;1251;75216;-58
2023/04/24 05:46:55;;;;;;;11.00;8.30;;;;;;;11.55;100.00;100419.31;105789;1254;62686;-60
2023/04/24 05:49:22;;;;;;;8.60;7.50;;;;;;;11.75;100.00;100416.11;105686;1254;62430;-60
2023/04/24 05:51:50;;;;;;;10.00;8.00;;;;;;;11.98;100.00;100414.41;105498;1257;76440;-58
2023/04/24 05:54:17;;;;;;;10.40;8.40;;;;;;;12.22;100.00;100408.17;105685;1251;69739;-58
2023/04/24 05:56:44;;;;;;;12.70;9.70;;;;;;;12.49;100.00;100400.59;105623;1251;75002;-58
2023/04/24 05:59:13;;;;;;;10.20;9.10;;;;;;;12.61;100.00;100400.38;105854;1255;61583;-58
2023/04/24 06:01:40;;;;;;;10.60;7.90;;;;;;;12.57;100.00;100397.46;106002;1257;62557;-63
2023/04/24 06:04:14;;;;;;;9.60;7.80;;;;;;;12.52;100.00;100392.77;105492;1260;75911;-56
2023/04/24 06:06:42;;;;;;;9.50;8.20;;;;;;;12.44;100.00;100390.23;105700;1251;69739;-57
2023/04/24 06:09:09;;;;;;;9.20;8.00;;;;;;;12.39;100.00;100390.72;105745;1251;75144;-59
2023/04/24 06:11:37;;;;;;;10.90;9.10;;;;;;;12.38;100.00;100391.32;105941;1251;62754;-60
2023/04/24 06:14:05;;;;;;;10.60;9.40;;;;;;;12.35;100.00;100391.20;105506;1254;62141;-58
2023/04/24 06:16:35;;;;;;;15.10;9.50;;;;;;;12.25;100.00;100379.52;105656;1251;76945;-58
2023/04/24 06:19:07;;;;;;;11.60;8.80;;;;;;;12.32;100.00;100373.77;105530;1251;69420;-57
2023/04/24 06:21:34;;;;;;;13.30;9.80;;;;;;;12.50;100.00;100362.19;105446;1254;74110;-59
2023/04/24 06:24:03;;;;;;;10.40;9.30;;;;;;;12.70;100.00;100367.44;105931;1257;63431;-59
2023/04/24 06:26:31;;;;;;;11.00;9.00;;;;;;;13.01;100.00;100367.89;105945;1256;61764;-57
2023/04/24 06:29:00;;;;;;;10.30;9.00;;;;;;;13.35;100.00;100369.42;105942;1251;75170;-59
2023/04/24 06:31:27;;;;;;;12.80;10.30;;;;;;;13.75;100.00;100372.10;105890;1251;69273;-58
2023/04/24 06:33:54;;;;;;;12.60;10.50;;;;;;;14.19;100.00;100374.75;105902;1251;74854;-60
2023/04/24 06:36:21;;;;;;;13.50;10.50;;;;;;;14.67;100.00;100367.40;105812;1251;64477;-65
2023/04/24 06:38:48;;;;;;;12.50;9.70;;;;;;;15.29;100.00;100358.64;105902;1251;62447;-59
2023/04/24 06:41:15;;;;;;;10.60;9.40;;;;;;;16.11;100.00;100359.50;105733;1251;76597;-57
2023/04/24 06:43:43;;;;;;;13.30;9.90;;;;;;;16.88;100.00;100350.06;105595;1251;69991;-61
2023/04/24 06:46:10;;;;;;;11.80;10.20;;;;;;;17.29;100.00;100342.88;105843;1257;74654;-58
2023/04/24 06:48:39;;;;;;;11.00;9.90;;;;;;;17.39;100.00;100338.02;105946;1252;62506;-62
2023/04/24 06:51:07;;;;;;;12.10;10.80;;;;;;;17.56;100.00;100340.24;105938;1256;62112;-59
2023/04/24 06:53:34;;;;;;;12.00;10.70;;;;;;;17.52;100.00;100337.18;105811;1251;75236;-59
2023/04/24 06:56:01;;;;;;;11.30;9.40;;;;;;;17.54;100.00;100338.33;105573;1257;68490;-59
2023/04/24 06:58:28;;;;;;;10.50;9.40;;;;;;;18.02;100.00;100336.75;105783;1251;75391;-59
2023/04/24 07:00:55;;;;;;;11.00;8.90;;;;;;;18.68;100.00;100334.38;105886;1267;61508;-62
2023/04/24 07:03:23;;;;;;;11.40;8.30;;;;;;;19.26;100.00;100336.89;105807;1257;63304;-57
2023/04/24 07:05:51;;;;;;;9.40;8.50;;;;;;;19.58;100.00;100332.59;106045;1251;75247;-61
2023/04/24 07:08:20;;;;;;;11.30;8.30;;;;;;;19.78;100.00;100331.30;105798;1251;69873;-60
2023/04/24 07:10:48;;;;;;;9.80;7.90;;;;;;;19.93;100.00;100329.09;106070;1251;74935;-61
2023/04/24 07:13:15;;;;;;;9.40;7.70;;;;;;;20.03;100.00;100331.20;105485;1251;63208;-58
2023/04/24 07:15:43;;;;;;;10.20;7.70;;;;;;;20.15;100.00;100331.20;105894;1251;62759;-58
2023/04/24 07:18:10;;;;;;;9.70;7.80;;;;;;;20.34;100.00;100329.59;105940;1253;76567;-58
2023/04/24 07:20:37;;;;;;;9.40;8.30;;;;;;;20.61;100.00;100333.28;105731;1256;69624;-60
2023/04/24 07:23:05;;;;;;;9.10;8.00;;;;;;;20.57;100.00;100332.80;105580;1254;74167;-59
2023/04/24 07:25:32;;;;;;;10.20;7.30;;;;;;;20.53;100.00;100329.69;105703;1258;61853;-61
2023/04/24 07:27:59;;;;;;;9.70;7.20;;;;;;;21.00;100.00;100328.40;105883;1253;61906;-58
2023/04/24 07:30:28;;;;;;;11.50;7.50;;;;;;;21.27;100.00;100327.98;105758;1251;76021;-60
2023/04/24 07:32:56;;;;;;;10.20;8.10;;;;;;;21.30;100.00;100325.71;105818;1252;69838;-60
2023/04/24 07:35:25;;;;;;;10.10;9.10;;;;;;;21.12;100.00;100323.23;105584;1256;73850;-58
2023/04/24 07:37:55;;;;;;;9.40;6.80;;;;;;;20.96;100.00;100324.66;105719;1257;62009;-60
2023/04/24 07:40:23;;;;;;;8.00;6.30;;;;;;;20.63;100.00;100323.45;105675;1257;61721;-58
2023/04/24 07:42:50;;;;;;;8.50;7.20;;;;;;;20.36;100.00;100327.60;105852;1251;75593;-59
2023/04/24 07:45:17;;;;;;;8.40;7.00;;;;;;;20.08;100.00;100327.03;105838;1255;68786;-59
2023/04/24 07:47:45;;;;;;;7.80;6.90;;;;;;;19.83;100.00;100324.50;105816;1252;75313;-60
2023/04/24 07:50:13;;;;;;;8.00;6.80;;;;;;;19.74;100.00;100323.27;105921;1257;61824;-59
2023/04/24 07:52:40;;;;;;;9.60;7.80;;;;;;;19.85;100.00;100321.63;105943;1254;62501;-60
2023/04/24 07:55:08;;;;;;;9.60;7.70;;;;;;;20.04;100.00;100321.36;106125;1256;76322;-61
2023/04/24 07:57:35;;;;;;;38.80;34.60;;;;;;;20.20;100.00;100320.56;105786;1254;68398;-61
2023/04/24 08:00:04;;;;;;;21.00;16.70;;;;;;;20.29;100.00;100322.54;105518;1260;75193;-61
2023/04/24 08:02:37;;;;;;;10.80;8.20;;;;;;;20.23;100.00;100316.01;105564;1251;62592;-58
2023/04/24 08:05:05;;;;;;;9.90;6.80;;;;;;;20.11;100.00;100311.40;106002;1251;62812;-59
2023/04/24 08:07:33;;;;;;;10.70;7.00;;;;;;;20.07;100.00;100305.32;106180;1251;75228;-62
2023/04/24 08:10:00;;;;;;;7.80;5.30;;;;;;;20.54;100.00;100296.48;105719;1257;68856;-60
2023/04/24 08:12:31;;;;;;;8.80;5.70;;;;;;;21.19;100.00;100288.98;106026;1255;75165;-60
2023/04/24 08:14:58;;;;;;;7.50;5.30;;;;;;;21.98;100.00;100289.50;105668;1260;62196;-58
2023/04/24 08:17:25;;;;;;;9.40;7.00;;;;;;;22.37;100.00;100291.61;105997;1257;61728;-60
2023/04/24 08:19:58;;;;;;;12.10;8.30;;;;;;;22.67;100.00;100293.04;105784;1257;75945;-58
2023/04/24 08:22:26;;;;;;;23.50;18.60;;;;;;;22.72;100.00;100282.00;106073;1254;68392;-59
2023/04/24 08:24:54;;;;;;;7.80;5.90;;;;;;;22.95;100.00;100276.73;105844;1251;75194;-58
2023/04/24 08:27:21;;;;;;;6.10;5.00;;;;;;;23.13;100.00;100271.65;105774;1256;61683;-61
2023/04/24 08:29:48;;;;;;;17.90;11.90;;;;;;;23.08;100.00;100275.63;105545;1251;62858;-60
2023/04/24 08:32:15;;;;;;;11.30;7.10;;;;;;;23.05;100.00;100266.22;105706;1256;76027;-58
2023/04/24 08:34:42;;;;;;;11.00;8.70;;;;;;;23.15;99.89;100262.93;105899;1257;68510;-59
2023/04/24 08:37:10;;;;;;;10.30;5.90;;;;;;;23.27;98.65;100262.17;105902;1257;75237;-59
2023/04/24 08:39:37;;;;;;;8.40;5.30;;;;;;;23.45;100.00;100256.79;105917;1257;62866;-60
2023/04/24 08:42:07;;;;;;;7.20;4.60;;;;;;;23.79;97.59;100254.23;105419;1251;62697;-63
2023/04/24 08:44:35;;;;;;;6.70;4.20;;;;;;;23.74;89.24;100256.81;105447;1251;76301;-59
2023/04/24 08:47:02;;;;;;;8.80;6.50;;;;;;;23.42;90.76;100253.33;105784;1252;68373;-60
2023/04/24 08:49:30;;;;;;;16.30;13.70;;;;;;;23.36;97.70;100253.71;105656;1251;74979;-63
2023/04/24 08:51:59;;;;;;;17.90;13.00;;;;;;;23.52;93.97;100250.76;105771;1251;61559;-60
2023/04/24 08:54:26;;;;;;;9.50;7.20;;;;;;;23.68;95.63;100243.35;105862;1251;61834;-60
2023/04/24 08:56:54;;;;;;;7.20;4.80;;;;;;;23.76;89.09;100239.62;105763;1251;74943;-59
2023/04/24 08:59:21;;;;;;;10.50;5.60;;;;;;;23.57;79.86;100241.45;106014;1251;69386;-58
2023/04/24 09:01:48;;;;;;;7.80;4.50;;;;;;;23.18;82.73;100240.96;105761;1251;74901;-59
2023/04/24 09:04:17;;;;;;;8.20;4.60;;;;;;;23.01;87.74;100237.83;105785;1259;62876;-60
2023/04/24 09:06:45;;;;;;;5.10;3.90;;;;;;;23.10;90.74;100235.86;105590;1251;61732;-59
2023/04/24 09:09:12;;;;;;;7.40;4.00;;;;;;;23.35;91.62;100229.30;105657;1251;76433;-59
2023/04/24 09:11:39;;;;;;;6.20;4.00;;;;;;;23.82;83.94;100228.94;105487;1257;68666;-59
2023/04/24 09:14:06;;;;;;;7.40;3.90;;;;;;;24.03;70.57;100225.15;105850;1251;74844;-58
2023/04/24 09:16:33;;;;;;;7.60;3.70;;;;;;;23.84;65.14;100219.25;105604;1256;62083;-58
2023/04/24 09:19:03;;;;;;;6.30;3.60;;;;;;;23.58;64.72;100219.21;106080;1251;278145;-59
2023/04/24 09:21:33;;;;;;;6.70;3.80;;;;;;;23.01;64.00;100220.38;105876;1257;76746;-59
2023/04/24 09:24:06;;;;;;;7.00;3.80;;;;;;;22.40;68.06;100222.09;105708;1257;69259;-59
2023/04/24 09:26:37;;;;;;;8.10;4.70;;;;;;;22.00;77.79;100226.17;105793;1257;74444;-59
2023/04/24 09:29:04;;;;;;;5.40;3.50;;;;;;;21.82;82.94;100220.73;105873;1252;61935;-60
2023/04/24 09:31:32;;;;;;;6.70;3.80;;;;;;;21.65;82.98;100218.21;106038;1257;61687;-61
2023/04/24 09:34:01;;;;;;;8.80;5.00;;;;;;;21.61;85.43;100219.89;105799;1256;76342;-58
2023/04/24 09:36:34;;;;;;;9.60;6.60;;;;;;;21.68;80.70;100219.76;105842;1257;68710;-58
2023/04/24 09:39:01;;;;;;;12.70;7.40;;;;;;;21.76;78.41;100217.38;105765;1253;73912;-58
2023/04/24 09:41:28;;;;;;;7.30;4.30;;;;;;;21.79;72.88;100217.48;106012;1251;62503;-60
2023/04/24 09:43:56;;;;;;;5.60;3.60;;;;;;;21.51;68.53;100215.27;105629;1251;63106;-58
2023/04/24 09:46:32;;;;;;;10.20;4.80;;;;;;;21.15;75.24;100213.71;105820;1251;76329;-60
2023/04/24 09:49:12;;;;;;;6.60;4.60;;;;;;;20.83;81.65;100210.92;105876;1251;69528;-57
2023/04/24 09:51:40;;;;;;;7.40;4.60;;;;;;;20.76;85.51;100210.90;105772;1251;75793;-57
2023/04/24 09:54:20;;;;;;;6.00;4.80;;;;;;;20.78;78.47;100202.30;105663;1257;61743;-60
2023/04/24 09:56:49;;;;;;;7.20;4.30;;;;;;;20.86;77.56;100202.47;106237;1257;60790;-60
2023/04/24 09:59:19;;;;;;;16.50;14.70;;;;;;;20.84;70.79;100203.83;105987;1251;75984;-58
2023/04/24 10:01:48;;;;;;;7.20;5.30;;;;;;;20.67;73.22;100207.92;105526;1257;69470;-57
2023/04/24 10:04:24;;;;;;;6.40;4.00;;;;;;;20.48;78.90;100202.30;105791;1254;75522;-58
2023/04/24 10:06:52;;;;;;;8.50;5.40;;;;;;;20.51;81.29;100203.48;106089;1251;61852;-60
2023/04/24 10:09:21;;;;;;;8.00;5.90;;;;;;;20.54;83.46;100207.42;105632;1257;63305;-57
2023/04/24 10:11:50;;;;;;;8.80;5.90;;;;;;;20.45;80.38;100209.63;105918;1256;76105;-59
2023/04/24 10:14:18;;;;;;;7.30;4.40;;;;;;;20.29;85.55;100208.13;105884;1256;69310;-58
2023/04/24 10:16:46;;;;;;;7.70;4.40;;;;;;;20.20;89.35;100210.09;105672;1254;73851;-60
2023/04/24 10:19:14;;;;;;;9.50;6.40;;;;;;;20.06;88.54;100208.29;105701;1254;62560;-57
2023/04/24 10:21:46;;;;;;;13.00;9.20;;;;;;;19.79;90.00;100207.16;105842;1251;62542;-57
2023/04/24 10:24:14;;;;;;;15.50;11.40;;;;;;;19.52;88.56;100205.61;105698;1251;75328;-58
2023/04/24 10:26:41;;;;;;;15.60;9.70;;;;;;;19.30;90.91;100209.94;105914;1257;69346;-62
2023/04/24 10:29:12;;;;;;;19.80;11.40;;;;;;;19.17;97.37;100207.21;105594;1257;75220;-58
2023/04/24 10:31:40;;;;;;;16.20;10.90;;;;;;;19.17;100.00;100205.94;105528;1259;61540;-58
2023/04/24 10:34:08;;;;;;;12.00;7.50;;;;;;;19.22;99.21;100204.89;105902;1253;63067;-57
2023/04/24 10:36:37;;;;;;;10.20;4.70;;;;;;;19.26;98.36;100204.48;106095;1256;76009;-59
2023/04/24 10:39:09;;;;;;;12.10;6.80;;;;;;;19.33;100.00;100201.21;105748;1257;68263;-60
2023/04/24 10:41:36;;;;;;;;;;;;;;;19.39;99.62;100203.77;105576;1252;74124;-58
2023/04/24 10:44:07;;;;;;;9.40;5.60;;;;;;;19.46;100.00;100205.05;105879;1257;62854;-58
2023/04/24 10:46:34;;;;;;;5.90;3.80;;;;;;;19.64;100.00;100201.08;105948;1251;61440;-60
2023/04/24 10:49:09;;;;;;;17.70;10.90;;;;;;;19.89;99.85;100194.44;106030;1256;76633;-58
2023/04/24 10:51:50;;;;;;;23.10;12.00;;;;;;;20.15;98.77;100193.67;105823;1256;69777;-57
2023/04/24 10:54:25;;;;;;;7.90;4.70;;;;;;;20.44;98.66;100189.77;105638;1256;75196;-57
2023/04/24 10:56:52;;;;;;;5.70;3.50;;;;;;;20.74;96.22;100182.74;105921;1257;62911;-57
2023/04/24 10:59:27;;;;;;;6.90;3.90;;;;;;;20.98;87.42;100179.02;106067;1251;61360;-58
2023/04/24 11:01:55;;;;;;;9.40;6.20;;;;;;;21.03;89.16;100179.59;105799;1256;76309;-57
2023/04/24 11:04:31;;;;;;;6.00;4.10;;;;;;;20.97;90.11;100186.13;106139;1257;69535;-59
2023/04/24 11:06:58;;;;;;;7.80;3.90;;;;;;;20.75;91.79;100184.94;105872;1257;75127;-57
2023/04/24 11:09:30;;;;;;;6.80;3.50;;;;;;;20.57;91.18;100180.86;105785;1256;62981;-56
2023/04/24 11:12:06;;;;;;;6.40;4.10;;;;;;;20.42;93.85;100177.89;105712;1259;61381;-57
2023/04/24 11:14:59;;;;;;;9.70;3.70;;;;;;;20.20;94.26;100175.27;106043;1251;75642;-60
2023/04/24 11:17:40;;;;;;;6.50;3.60;;;;;;;19.98;93.20;100180.63;105905;1256;68594;-58
2023/04/24 11:20:15;;;;;;;5.00;3.90;;;;;;;19.81;97.40;100175.81;105489;1254;73375;-60